Peruwelz, Belgium
Current Conditions -  °F | °C
As of 9:25 AM on Wednesday 22 Oct 2014 (Local Time) from EBCV Reporting Station
Few Clouds Few Clouds  
Wind Chill: 40°   Ceiling: Unl
Heat Index: 46°   Visibility: 6mi
Dew Point: 41°   Wind: 15mph
Humidity: 81%   Direction: 280°W
Pressure: 30.18"   Gusts: NA
Location:  50.51°N, 3.59°E
Report Text: EBCV 220725Z AUTO 28013KT 9999 FEW032/// 08/05 Q1022 BLU
Loading
Personal Weather Stations






























Interactive Weather Map
Tropical Storm Tracking
New forecast layout! Learn more

10-Day Weather Forecast

Advertisements
Track Severe Weather on mobile